JRR479 EKVG-EGPH
Flight info
| Callsign | JRR479 |
|---|---|
| Flight time | 1h 17m |
| Altitude | 37000 |
| Route | ODEVA DCT NALAN/N0437F370 DCT LAGAV N560 FOYLE DCT STIRA |
| Aircraft | B738/M-SDGIRWY/S |
Departure
| Time | 2026-04-22 17:53 |
|---|---|
| Airport | Vágar Airport (EKVG) |
Arrival
| Time | 2026-04-22 19:11 |
|---|---|
| Airport | Edinburgh Airport (EGPH) |
| Time | Latitude | Longitude | Altitude | Speed | Heading |
|---|---|---|---|---|---|
| 2026-04-22 17:20 | 62.06731 | -7.28129 | 290 ft | 0 kts | 73° |
| 2026-04-22 17:47 | 62.06730 | -7.28127 | 288 ft | 0 kts | 79° |
| 2026-04-22 17:47 | 62.06728 | -7.28123 | 293 ft | 0 kts | 117° |
| 2026-04-22 17:47 | 62.06725 | -7.28123 | 292 ft | 0 kts | 159° |
| 2026-04-22 17:47 | 62.06715 | -7.28126 | 290 ft | 3 kts | 182° |
| 2026-04-22 17:48 | 62.06696 | -7.28122 | 288 ft | 6 kts | 169° |
| 2026-04-22 17:48 | 62.06607 | -7.28088 | 288 ft | 12 kts | 180° |
| 2026-04-22 17:48 | 62.06573 | -7.28094 | 287 ft | 0 kts | 191° |
| 2026-04-22 17:49 | 62.06572 | -7.28095 | 287 ft | 0 kts | 191° |
| 2026-04-22 17:49 | 62.06557 | -7.28101 | 287 ft | 7 kts | 192° |
| 2026-04-22 17:50 | 62.06480 | -7.28141 | 287 ft | 12 kts | 166° |
| 2026-04-22 17:50 | 62.06433 | -7.28018 | 291 ft | 11 kts | 118° |
| 2026-04-22 17:50 | 62.06394 | -7.27859 | 298 ft | 15 kts | 117° |
| 2026-04-22 17:50 | 62.06329 | -7.27600 | 291 ft | 25 kts | 119° |
| 2026-04-22 17:51 | 62.06228 | -7.27194 | 279 ft | 37 kts | 117° |
| 2026-04-22 17:51 | 62.06114 | -7.26735 | 268 ft | 33 kts | 118° |
| 2026-04-22 17:51 | 62.06005 | -7.26293 | 250 ft | 31 kts | 115° |
| 2026-04-22 17:51 | 62.05956 | -7.26039 | 244 ft | 8 kts | 109° |
| 2026-04-22 17:52 | 62.05946 | -7.26018 | 245 ft | 0 kts | 155° |
| 2026-04-22 17:52 | 62.05944 | -7.26022 | 245 ft | 0 kts | 193° |
| 2026-04-22 17:52 | 62.05943 | -7.26030 | 245 ft | 1 kts | 241° |
| 2026-04-22 17:52 | 62.05953 | -7.26083 | 243 ft | 13 kts | 294° |
| 2026-04-22 17:53 | 62.06087 | -7.26627 | 265 ft | 85 kts | 297° |
| 2026-04-22 17:53 | 62.06495 | -7.28282 | 340 ft | 162 kts | 297° |
| 2026-04-22 17:53 | 62.07033 | -7.30347 | 1635 ft | 146 kts | 298° |
| 2026-04-22 17:53 | 62.07483 | -7.32163 | 2934 ft | 140 kts | 290° |
| 2026-04-22 17:54 | 62.07782 | -7.34361 | 3443 ft | 172 kts | 284° |
| 2026-04-22 17:54 | 62.08143 | -7.37000 | 4112 ft | 189 kts | 286° |
| 2026-04-22 17:54 | 62.08565 | -7.39801 | 4700 ft | 212 kts | 287° |
| 2026-04-22 17:54 | 62.09051 | -7.43003 | 5072 ft | 236 kts | 287° |
| 2026-04-22 17:55 | 62.09388 | -7.45248 | 5513 ft | 244 kts | 284° |
| 2026-04-22 17:55 | 62.09585 | -7.50027 | 6761 ft | 246 kts | 262° |
| 2026-04-22 17:55 | 62.09198 | -7.53601 | 7724 ft | 249 kts | 249° |
| 2026-04-22 17:55 | 62.08461 | -7.56958 | 8631 ft | 252 kts | 236° |
| 2026-04-22 17:56 | 62.07317 | -7.59815 | 9568 ft | 255 kts | 220° |
| 2026-04-22 17:56 | 62.05871 | -7.62014 | 10511 ft | 257 kts | 207° |
| 2026-04-22 17:56 | 62.04201 | -7.63422 | 11372 ft | 259 kts | 192° |
| 2026-04-22 17:56 | 62.02410 | -7.63903 | 12242 ft | 261 kts | 178° |
| 2026-04-22 17:57 | 62.00606 | -7.63405 | 13127 ft | 263 kts | 163° |
| 2026-04-22 17:57 | 61.98924 | -7.62017 | 14023 ft | 265 kts | 151° |
| 2026-04-22 17:57 | 61.97440 | -7.59696 | 14850 ft | 267 kts | 134° |
| 2026-04-22 17:57 | 61.96294 | -7.56600 | 15695 ft | 268 kts | 121° |
| 2026-04-22 17:58 | 61.95540 | -7.52974 | 16535 ft | 271 kts | 108° |
| 2026-04-22 17:58 | 61.95210 | -7.48994 | 17324 ft | 278 kts | 98° |
| 2026-04-22 17:58 | 61.95008 | -7.44758 | 17591 ft | 301 kts | 99° |
| 2026-04-22 17:58 | 61.94772 | -7.40167 | 17786 ft | 324 kts | 99° |
| 2026-04-22 17:59 | 61.94514 | -7.35233 | 17987 ft | 346 kts | 99° |
| 2026-04-22 17:59 | 61.94246 | -7.30128 | 18489 ft | 357 kts | 99° |
| 2026-04-22 17:59 | 61.93970 | -7.24863 | 19192 ft | 360 kts | 99° |
| 2026-04-22 17:59 | 61.93691 | -7.19577 | 19969 ft | 360 kts | 99° |
| 2026-04-22 18:00 | 61.93501 | -7.16006 | 20506 ft | 360 kts | 99° |
| 2026-04-22 18:00 | 61.93125 | -7.09000 | 21473 ft | 362 kts | 99° |
| 2026-04-22 18:00 | 61.92834 | -7.03665 | 22169 ft | 364 kts | 100° |
| 2026-04-22 18:00 | 61.92540 | -6.98318 | 22853 ft | 366 kts | 100° |
| 2026-04-22 18:01 | 61.92243 | -6.92944 | 23532 ft | 368 kts | 100° |
| 2026-04-22 18:01 | 61.91943 | -6.87533 | 24185 ft | 370 kts | 100° |
| 2026-04-22 18:01 | 61.91643 | -6.82168 | 24721 ft | 372 kts | 100° |
| 2026-04-22 18:01 | 61.91335 | -6.76708 | 25242 ft | 374 kts | 101° |
| 2026-04-22 18:02 | 61.91000 | -6.71231 | 25750 ft | 374 kts | 105° |
| 2026-04-22 18:02 | 61.90107 | -6.66100 | 26216 ft | 371 kts | 122° |
| 2026-04-22 18:02 | 61.88551 | -6.61760 | 26753 ft | 371 kts | 134° |
| 2026-04-22 18:02 | 61.86568 | -6.58264 | 27260 ft | 373 kts | 146° |
| 2026-04-22 18:03 | 61.84204 | -6.55927 | 27734 ft | 378 kts | 157° |
| 2026-04-22 18:03 | 61.81701 | -6.54122 | 28216 ft | 381 kts | 159° |
| 2026-04-22 18:03 | 61.79199 | -6.52466 | 28659 ft | 384 kts | 159° |
| 2026-04-22 18:03 | 61.76636 | -6.50806 | 29113 ft | 386 kts | 159° |
| 2026-04-22 18:04 | 61.74063 | -6.49130 | 29561 ft | 387 kts | 159° |
| 2026-04-22 18:04 | 61.71488 | -6.47431 | 29997 ft | 389 kts | 159° |
| 2026-04-22 18:04 | 61.68904 | -6.45708 | 30419 ft | 391 kts | 159° |
| 2026-04-22 18:04 | 61.66311 | -6.43966 | 30838 ft | 391 kts | 159° |
| 2026-04-22 18:05 | 61.63727 | -6.42225 | 31300 ft | 389 kts | 159° |
| 2026-04-22 18:05 | 61.61151 | -6.40487 | 31739 ft | 389 kts | 159° |
| 2026-04-22 18:05 | 61.58574 | -6.38748 | 32116 ft | 389 kts | 159° |
| 2026-04-22 18:05 | 61.55998 | -6.37011 | 32479 ft | 390 kts | 159° |
| 2026-04-22 18:06 | 61.53446 | -6.35294 | 32871 ft | 390 kts | 159° |
| 2026-04-22 18:06 | 61.50866 | -6.33561 | 33275 ft | 390 kts | 159° |
| 2026-04-22 18:06 | 61.48281 | -6.31827 | 33649 ft | 390 kts | 159° |
| 2026-04-22 18:06 | 61.45692 | -6.30095 | 34007 ft | 391 kts | 159° |
| 2026-04-22 18:07 | 61.43976 | -6.28948 | 34263 ft | 391 kts | 159° |
| 2026-04-22 18:07 | 61.40520 | -6.26642 | 34721 ft | 391 kts | 159° |
| 2026-04-22 18:07 | 61.37921 | -6.24911 | 34968 ft | 393 kts | 159° |
| 2026-04-22 18:07 | 61.35313 | -6.23178 | 35208 ft | 394 kts | 159° |
| 2026-04-22 18:08 | 61.32733 | -6.21466 | 35478 ft | 395 kts | 159° |
| 2026-04-22 18:08 | 61.30110 | -6.19729 | 35750 ft | 396 kts | 159° |
| 2026-04-22 18:08 | 61.27477 | -6.17988 | 35978 ft | 398 kts | 160° |
| 2026-04-22 18:08 | 61.24837 | -6.16246 | 36226 ft | 399 kts | 160° |
| 2026-04-22 18:09 | 61.22183 | -6.14498 | 36484 ft | 400 kts | 160° |
| 2026-04-22 18:09 | 61.19527 | -6.12751 | 36709 ft | 402 kts | 160° |
| 2026-04-22 18:09 | 61.16859 | -6.10999 | 36911 ft | 404 kts | 160° |
| 2026-04-22 18:09 | 61.14173 | -6.09239 | 37146 ft | 405 kts | 160° |
| 2026-04-22 18:10 | 61.11527 | -6.07508 | 37411 ft | 405 kts | 160° |
| 2026-04-22 18:10 | 61.08835 | -6.05750 | 37548 ft | 408 kts | 160° |
| 2026-04-22 18:10 | 61.06112 | -6.03973 | 37548 ft | 412 kts | 160° |
| 2026-04-22 18:11 | 61.00642 | -6.00419 | 37543 ft | 411 kts | 161° |
| 2026-04-22 18:11 | 60.95155 | -5.97485 | 37558 ft | 406 kts | 164° |
| 2026-04-22 18:12 | 60.89653 | -5.94831 | 37556 ft | 407 kts | 165° |
| 2026-04-22 18:12 | 60.85069 | -5.92625 | 37549 ft | 407 kts | 165° |
| 2026-04-22 18:13 | 60.78656 | -5.89513 | 37553 ft | 408 kts | 164° |
| 2026-04-22 18:13 | 60.73125 | -5.86823 | 37554 ft | 409 kts | 165° |
| 2026-04-22 18:14 | 60.67623 | -5.84151 | 37550 ft | 410 kts | 165° |
| 2026-04-22 18:14 | 60.62073 | -5.81465 | 37552 ft | 410 kts | 165° |
| 2026-04-22 18:15 | 60.57446 | -5.79233 | 37550 ft | 411 kts | 165° |
| 2026-04-22 18:15 | 60.50936 | -5.76105 | 37551 ft | 412 kts | 165° |
| 2026-04-22 18:16 | 60.45359 | -5.73434 | 37549 ft | 412 kts | 165° |
| 2026-04-22 18:16 | 60.39801 | -5.70783 | 37547 ft | 413 kts | 165° |
| 2026-04-22 18:17 | 60.34212 | -5.68126 | 37548 ft | 413 kts | 165° |
| 2026-04-22 18:17 | 60.28605 | -5.65470 | 37548 ft | 413 kts | 165° |
| 2026-04-22 18:18 | 60.23010 | -5.62829 | 37544 ft | 414 kts | 165° |
| 2026-04-22 18:18 | 60.17436 | -5.60207 | 37548 ft | 414 kts | 165° |
| 2026-04-22 18:19 | 60.11828 | -5.57578 | 37546 ft | 414 kts | 165° |
| 2026-04-22 18:19 | 60.06215 | -5.54956 | 37543 ft | 414 kts | 165° |
| 2026-04-22 18:20 | 60.00602 | -5.52343 | 37545 ft | 414 kts | 165° |
| 2026-04-22 18:20 | 59.95024 | -5.49755 | 37545 ft | 414 kts | 165° |
| 2026-04-22 18:21 | 59.89408 | -5.47160 | 37544 ft | 415 kts | 165° |
| 2026-04-22 18:21 | 59.83781 | -5.44567 | 37542 ft | 415 kts | 166° |
| 2026-04-22 18:22 | 59.78158 | -5.41986 | 37540 ft | 415 kts | 166° |
| 2026-04-22 18:22 | 59.72530 | -5.39411 | 37541 ft | 415 kts | 166° |
| 2026-04-22 18:23 | 59.66935 | -5.36860 | 37543 ft | 416 kts | 166° |
| 2026-04-22 18:23 | 59.61298 | -5.34299 | 37541 ft | 416 kts | 166° |
| 2026-04-22 18:24 | 59.52835 | -5.30470 | 37539 ft | 416 kts | 166° |
| 2026-04-22 18:25 | 59.44386 | -5.26667 | 37536 ft | 417 kts | 166° |
| 2026-04-22 18:25 | 59.38732 | -5.24133 | 37538 ft | 417 kts | 166° |
| 2026-04-22 18:26 | 59.30231 | -5.20340 | 37536 ft | 418 kts | 166° |
| 2026-04-22 18:26 | 59.24555 | -5.17817 | 37536 ft | 418 kts | 166° |
| 2026-04-22 18:27 | 59.18919 | -5.15322 | 37534 ft | 419 kts | 166° |
| 2026-04-22 18:27 | 59.13235 | -5.12813 | 37536 ft | 419 kts | 166° |
| 2026-04-22 18:28 | 59.07547 | -5.10312 | 37534 ft | 419 kts | 166° |
| 2026-04-22 18:28 | 59.01843 | -5.07811 | 37533 ft | 420 kts | 166° |
| 2026-04-22 18:29 | 58.96185 | -5.05339 | 37526 ft | 420 kts | 166° |
| 2026-04-22 18:29 | 58.90477 | -5.02855 | 37526 ft | 421 kts | 167° |
| 2026-04-22 18:30 | 58.81904 | -4.99138 | 37524 ft | 421 kts | 167° |
| 2026-04-22 18:31 | 58.76180 | -4.96666 | 37518 ft | 421 kts | 167° |
| 2026-04-22 18:31 | 58.70496 | -4.94221 | 37517 ft | 422 kts | 167° |
| 2026-04-22 18:32 | 58.64769 | -4.91765 | 37515 ft | 422 kts | 167° |
| 2026-04-22 18:32 | 58.59040 | -4.89317 | 37515 ft | 422 kts | 167° |
| 2026-04-22 18:33 | 58.53305 | -4.86874 | 37511 ft | 423 kts | 167° |
| 2026-04-22 18:33 | 58.47601 | -4.84452 | 37515 ft | 423 kts | 167° |
| 2026-04-22 18:34 | 58.41847 | -4.82018 | 37513 ft | 423 kts | 167° |
| 2026-04-22 18:34 | 58.36100 | -4.79594 | 37507 ft | 424 kts | 167° |
| 2026-04-22 18:35 | 58.30343 | -4.77174 | 37514 ft | 424 kts | 167° |
| 2026-04-22 18:35 | 58.24582 | -4.74761 | 37514 ft | 424 kts | 167° |
| 2026-04-22 18:36 | 58.18852 | -4.72369 | 37514 ft | 424 kts | 167° |
| 2026-04-22 18:36 | 58.13086 | -4.69969 | 37511 ft | 424 kts | 168° |
| 2026-04-22 18:37 | 58.07317 | -4.67577 | 37517 ft | 425 kts | 168° |
| 2026-04-22 18:37 | 58.02519 | -4.65593 | 37512 ft | 425 kts | 168° |
| 2026-04-22 18:38 | 57.95806 | -4.62826 | 37521 ft | 425 kts | 168° |
| 2026-04-22 18:38 | 57.90034 | -4.60456 | 37518 ft | 425 kts | 168° |
| 2026-04-22 18:39 | 57.81365 | -4.56910 | 37516 ft | 426 kts | 168° |
| 2026-04-22 18:39 | 57.75570 | -4.54550 | 37518 ft | 426 kts | 168° |
| 2026-04-22 18:40 | 57.69817 | -4.52214 | 37521 ft | 426 kts | 168° |
| 2026-04-22 18:40 | 57.64020 | -4.49868 | 37522 ft | 426 kts | 168° |
| 2026-04-22 18:41 | 57.58226 | -4.47531 | 37523 ft | 427 kts | 168° |
| 2026-04-22 18:41 | 57.52430 | -4.45201 | 36959 ft | 430 kts | 169° |
| 2026-04-22 18:42 | 57.49511 | -4.44030 | 36406 ft | 429 kts | 169° |
| 2026-04-22 18:42 | 57.46611 | -4.42868 | 36017 ft | 424 kts | 170° |
| 2026-04-22 18:42 | 57.43739 | -4.41719 | 35577 ft | 421 kts | 170° |
| 2026-04-22 18:42 | 57.40887 | -4.40580 | 35155 ft | 418 kts | 171° |
| 2026-04-22 18:43 | 57.38052 | -4.39450 | 34726 ft | 416 kts | 171° |
| 2026-04-22 18:43 | 57.35234 | -4.38328 | 34241 ft | 414 kts | 171° |
| 2026-04-22 18:43 | 57.32426 | -4.37212 | 33777 ft | 411 kts | 172° |
| 2026-04-22 18:43 | 57.29640 | -4.36107 | 33329 ft | 408 kts | 172° |
| 2026-04-22 18:44 | 57.26920 | -4.35029 | 32899 ft | 404 kts | 173° |
| 2026-04-22 18:44 | 57.24172 | -4.33942 | 32486 ft | 401 kts | 173° |
| 2026-04-22 18:44 | 57.21455 | -4.32869 | 32071 ft | 399 kts | 173° |
| 2026-04-22 18:44 | 57.18755 | -4.31805 | 31664 ft | 396 kts | 174° |
| 2026-04-22 18:45 | 57.16062 | -4.30745 | 31265 ft | 393 kts | 174° |
| 2026-04-22 18:45 | 57.13393 | -4.29696 | 30860 ft | 391 kts | 174° |
| 2026-04-22 18:45 | 57.10745 | -4.28657 | 30435 ft | 388 kts | 174° |
| 2026-04-22 18:45 | 57.08107 | -4.27624 | 29989 ft | 385 kts | 174° |
| 2026-04-22 18:46 | 57.05496 | -4.26602 | 29536 ft | 382 kts | 174° |
| 2026-04-22 18:46 | 57.02914 | -4.25593 | 29133 ft | 378 kts | 174° |
| 2026-04-22 18:46 | 57.00385 | -4.24607 | 28729 ft | 375 kts | 174° |
| 2026-04-22 18:46 | 56.97842 | -4.23617 | 28325 ft | 372 kts | 174° |
| 2026-04-22 18:47 | 56.95326 | -4.22638 | 27929 ft | 369 kts | 174° |
| 2026-04-22 18:47 | 56.92833 | -4.21669 | 27546 ft | 366 kts | 174° |
| 2026-04-22 18:47 | 56.90343 | -4.20785 | 27149 ft | 361 kts | 179° |
| 2026-04-22 18:47 | 56.87859 | -4.20581 | 26609 ft | 356 kts | 189° |
| 2026-04-22 18:48 | 56.85411 | -4.21114 | 26149 ft | 354 kts | 193° |
| 2026-04-22 18:48 | 56.82980 | -4.21754 | 25727 ft | 352 kts | 193° |
| 2026-04-22 18:48 | 56.80588 | -4.22383 | 25337 ft | 351 kts | 192° |
| 2026-04-22 18:48 | 56.78178 | -4.23000 | 24949 ft | 349 kts | 192° |
| 2026-04-22 18:49 | 56.75778 | -4.23596 | 24568 ft | 347 kts | 192° |
| 2026-04-22 18:49 | 56.73391 | -4.24178 | 24196 ft | 346 kts | 192° |
| 2026-04-22 18:49 | 56.71011 | -4.24755 | 23770 ft | 344 kts | 191° |
| 2026-04-22 18:49 | 56.68647 | -4.25326 | 23356 ft | 342 kts | 191° |
| 2026-04-22 18:50 | 56.66301 | -4.25892 | 22988 ft | 338 kts | 191° |
| 2026-04-22 18:50 | 56.63980 | -4.26452 | 22615 ft | 335 kts | 191° |
| 2026-04-22 18:50 | 56.61703 | -4.27000 | 22254 ft | 333 kts | 190° |
| 2026-04-22 18:50 | 56.59414 | -4.27551 | 21884 ft | 330 kts | 190° |
| 2026-04-22 18:51 | 56.57144 | -4.28098 | 21468 ft | 329 kts | 190° |
| 2026-04-22 18:51 | 56.54872 | -4.28645 | 21056 ft | 329 kts | 189° |
| 2026-04-22 18:51 | 56.52601 | -4.29191 | 20503 ft | 332 kts | 189° |
| 2026-04-22 18:51 | 56.50304 | -4.29742 | 20018 ft | 333 kts | 189° |
| 2026-04-22 18:52 | 56.48017 | -4.30289 | 19654 ft | 330 kts | 188° |
| 2026-04-22 18:52 | 56.45749 | -4.30831 | 19317 ft | 327 kts | 188° |
| 2026-04-22 18:52 | 56.43503 | -4.31362 | 18965 ft | 324 kts | 188° |
| 2026-04-22 18:52 | 56.41269 | -4.31888 | 18558 ft | 323 kts | 187° |
| 2026-04-22 18:53 | 56.39080 | -4.32403 | 18151 ft | 320 kts | 187° |
| 2026-04-22 18:53 | 56.36886 | -4.32919 | 17745 ft | 318 kts | 187° |
| 2026-04-22 18:53 | 56.34690 | -4.33435 | 17349 ft | 316 kts | 187° |
| 2026-04-22 18:53 | 56.32538 | -4.33940 | 16825 ft | 310 kts | 187° |
| 2026-04-22 18:54 | 56.30397 | -4.34442 | 16125 ft | 309 kts | 187° |
| 2026-04-22 18:54 | 56.28270 | -4.34941 | 15478 ft | 308 kts | 187° |
| 2026-04-22 18:54 | 56.26152 | -4.35437 | 14892 ft | 305 kts | 186° |
| 2026-04-22 18:54 | 56.24062 | -4.35925 | 14321 ft | 302 kts | 186° |
| 2026-04-22 18:55 | 56.22010 | -4.36405 | 13677 ft | 299 kts | 186° |
| 2026-04-22 18:55 | 56.19960 | -4.36880 | 13060 ft | 296 kts | 185° |
| 2026-04-22 18:55 | 56.17923 | -4.36635 | 12415 ft | 293 kts | 162° |
| 2026-04-22 18:55 | 56.16143 | -4.34956 | 11844 ft | 289 kts | 141° |
| 2026-04-22 18:56 | 56.14867 | -4.32229 | 11290 ft | 288 kts | 121° |
| 2026-04-22 18:56 | 56.14178 | -4.28864 | 10697 ft | 291 kts | 101° |
| 2026-04-22 18:56 | 56.14049 | -4.25263 | 10294 ft | 287 kts | 94° |
| 2026-04-22 18:56 | 56.14011 | -4.21694 | 9948 ft | 288 kts | 94° |
| 2026-04-22 18:57 | 56.13976 | -4.18087 | 9614 ft | 291 kts | 94° |
| 2026-04-22 18:57 | 56.13934 | -4.14516 | 9276 ft | 290 kts | 94° |
| 2026-04-22 18:57 | 56.13881 | -4.10919 | 8950 ft | 287 kts | 94° |
| 2026-04-22 18:57 | 56.13824 | -4.07369 | 8661 ft | 283 kts | 94° |
| 2026-04-22 18:58 | 56.13765 | -4.03856 | 8354 ft | 281 kts | 95° |
| 2026-04-22 18:58 | 56.13417 | -4.00471 | 8035 ft | 274 kts | 116° |
| 2026-04-22 18:58 | 56.12314 | -3.97776 | 7774 ft | 268 kts | 140° |
| 2026-04-22 18:58 | 56.10704 | -3.96159 | 7514 ft | 265 kts | 162° |
| 2026-04-22 18:59 | 56.08893 | -3.95849 | 7405 ft | 263 kts | 184° |
| 2026-04-22 18:59 | 56.07721 | -3.96345 | 7317 ft | 260 kts | 197° |
| 2026-04-22 18:59 | 56.05760 | -3.98693 | 7148 ft | 260 kts | 222° |
| 2026-04-22 18:59 | 56.04536 | -4.01087 | 6826 ft | 258 kts | 225° |
| 2026-04-22 19:00 | 56.03741 | -4.02712 | 6495 ft | 258 kts | 225° |
| 2026-04-22 19:00 | 56.02203 | -4.05857 | 6313 ft | 251 kts | 224° |
| 2026-04-22 19:00 | 56.01024 | -4.08213 | 6213 ft | 256 kts | 221° |
| 2026-04-22 19:00 | 56.00082 | -4.09431 | 6107 ft | 250 kts | 198° |
| 2026-04-22 19:01 | 55.98416 | -4.09750 | 5859 ft | 240 kts | 166° |
| 2026-04-22 19:01 | 55.96899 | -4.08604 | 5565 ft | 237 kts | 144° |
| 2026-04-22 19:01 | 55.95684 | -4.06635 | 5404 ft | 236 kts | 132° |
| 2026-04-22 19:01 | 55.94280 | -4.03672 | 5246 ft | 237 kts | 129° |
| 2026-04-22 19:02 | 55.93232 | -4.01395 | 5131 ft | 238 kts | 129° |
| 2026-04-22 19:02 | 55.92177 | -3.99117 | 5034 ft | 238 kts | 130° |
| 2026-04-22 19:02 | 55.91477 | -3.97613 | 4947 ft | 237 kts | 130° |
| 2026-04-22 19:02 | 55.90419 | -3.95356 | 4833 ft | 237 kts | 130° |
| 2026-04-22 19:03 | 55.89367 | -3.93121 | 4740 ft | 236 kts | 130° |
| 2026-04-22 19:03 | 55.88320 | -3.90903 | 4628 ft | 229 kts | 130° |
| 2026-04-22 19:03 | 55.87323 | -3.88800 | 4506 ft | 214 kts | 130° |
| 2026-04-22 19:03 | 55.86399 | -3.86852 | 4404 ft | 199 kts | 130° |
| 2026-04-22 19:04 | 55.85516 | -3.84997 | 4341 ft | 195 kts | 130° |
| 2026-04-22 19:04 | 55.84659 | -3.83200 | 4275 ft | 186 kts | 130° |
| 2026-04-22 19:04 | 55.83850 | -3.81504 | 4175 ft | 174 kts | 130° |
| 2026-04-22 19:04 | 55.83072 | -3.79876 | 4069 ft | 173 kts | 130° |
| 2026-04-22 19:05 | 55.82357 | -3.78171 | 3989 ft | 172 kts | 112° |
| 2026-04-22 19:05 | 55.82421 | -3.76091 | 4001 ft | 177 kts | 70° |
| 2026-04-22 19:05 | 55.82938 | -3.74083 | 4004 ft | 181 kts | 72° |
| 2026-04-22 19:05 | 55.83437 | -3.72032 | 3998 ft | 183 kts | 70° |
| 2026-04-22 19:06 | 55.84015 | -3.70018 | 3997 ft | 182 kts | 66° |
| 2026-04-22 19:06 | 55.84639 | -3.68056 | 3973 ft | 183 kts | 65° |
| 2026-04-22 19:06 | 55.85293 | -3.66072 | 3754 ft | 188 kts | 64° |
| 2026-04-22 19:07 | 55.86615 | -3.62132 | 3260 ft | 183 kts | 63° |
| 2026-04-22 19:07 | 55.87266 | -3.60193 | 3021 ft | 181 kts | 63° |
| 2026-04-22 19:07 | 55.87906 | -3.58288 | 2775 ft | 178 kts | 63° |
| 2026-04-22 19:07 | 55.88527 | -3.56442 | 2531 ft | 174 kts | 62° |
| 2026-04-22 19:08 | 55.89138 | -3.54625 | 2280 ft | 169 kts | 62° |
| 2026-04-22 19:08 | 55.89720 | -3.52897 | 2045 ft | 156 kts | 62° |
| 2026-04-22 19:08 | 55.90255 | -3.51308 | 1859 ft | 141 kts | 62° |
| 2026-04-22 19:08 | 55.90742 | -3.49862 | 1651 ft | 136 kts | 63° |
| 2026-04-22 19:09 | 55.91231 | -3.48406 | 1455 ft | 138 kts | 62° |
| 2026-04-22 19:09 | 55.91725 | -3.46939 | 1254 ft | 137 kts | 62° |
| 2026-04-22 19:09 | 55.92213 | -3.45488 | 1035 ft | 136 kts | 61° |
| 2026-04-22 19:09 | 55.92705 | -3.44080 | 854 ft | 134 kts | 58° |
| 2026-04-22 19:10 | 55.93184 | -3.42627 | 606 ft | 134 kts | 62° |
| 2026-04-22 19:10 | 55.93654 | -3.41233 | 451 ft | 130 kts | 58° |
| 2026-04-22 19:10 | 55.94120 | -3.39855 | 262 ft | 131 kts | 59° |
| 2026-04-22 19:10 | 55.94584 | -3.38476 | 111 ft | 127 kts | 59° |
| 2026-04-22 19:11 | 55.94965 | -3.37350 | 105 ft | 77 kts | 59° |
| 2026-04-22 19:11 | 55.95138 | -3.36839 | 107 ft | 33 kts | 59° |
| 2026-04-22 19:11 | 55.95243 | -3.36533 | 106 ft | 19 kts | 58° |
| 2026-04-22 19:11 | 55.95240 | -3.36409 | 105 ft | 10 kts | 135° |
| 2026-04-22 19:12 | 55.95187 | -3.36346 | 106 ft | 9 kts | 149° |
| 2026-04-22 19:12 | 55.95177 | -3.36335 | 106 ft | 0 kts | 149° |
| 2026-04-22 19:12 | 55.95167 | -3.36325 | 106 ft | 4 kts | 148° |
| 2026-04-22 19:13 | 55.95145 | -3.36266 | 106 ft | 7 kts | 113° |
| 2026-04-22 19:13 | 55.95128 | -3.36187 | 106 ft | 7 kts | 110° |
| 2026-04-22 19:13 | 55.95112 | -3.36100 | 105 ft | 9 kts | 108° |
| 2026-04-22 19:13 | 55.95087 | -3.35975 | 106 ft | 12 kts | 115° |
| 2026-04-22 19:14 | 55.95040 | -3.35851 | 106 ft | 12 kts | 151° |
| 2026-04-22 19:14 | 55.94963 | -3.35864 | 106 ft | 11 kts | 175° |
| 2026-04-22 19:14 | 55.94897 | -3.35832 | 106 ft | 9 kts | 194° |
| 2026-04-22 19:14 | 55.94850 | -3.35872 | 106 ft | 0 kts | 210° |